Time;durP1;ratioP1;P1;durP2;ratioP2;P2;SDS_P1;SDS_P2;PMS_P1;PMS_P2;Temp;Humidity;BMP_temperature;BMP_pressure;BME280_temperature;BME280_humidity;BME280_pressure;Samples;Min_cycle;Max_cycle;Signal;HPM_P1;HPM_P2
2023/06/04 00:01:48;;;;;;;11.95;6.82;;;;;;;;;;5020365;28;20054;-84
2023/06/04 00:04:34;;;;;;;9.30;7.00;;;;;;;;;;5054890;28;20045;-86
2023/06/04 00:07:19;;;;;;;10.95;7.60;;;;;;;;;;5035446;28;20041;-81
2023/06/04 00:10:05;;;;;;;12.57;5.93;;;;;;;;;;5035667;28;20041;-82
2023/06/04 00:12:50;;;;;;;6.93;4.88;;;;;;;;;;5055084;28;20038;-81
2023/06/04 00:15:35;;;;;;;9.35;4.30;;;;;;;;;;5034791;28;20045;-84
2023/06/04 00:18:21;;;;;;;4.97;4.03;;;;;;;;;;5040711;28;20041;-85
2023/06/04 00:21:06;;;;;;;5.65;4.18;;;;;;;;;;5035139;28;20045;-85
2023/06/04 00:23:52;;;;;;;6.88;4.00;;;;;;;;;;5035125;28;20037;-82
2023/06/04 00:26:37;;;;;;;5.45;4.30;;;;;;;;;;5040766;28;20049;-85
2023/06/04 00:29:23;;;;;;;9.02;4.25;;;;;;;;;;5034574;28;20054;-85
2023/06/04 00:32:09;;;;;;;5.75;4.22;;;;;;;;;;5034946;28;20049;-82
2023/06/04 00:34:55;;;;;;;7.10;4.30;;;;;;;;;;5034007;28;20037;-85
2023/06/04 00:37:41;;;;;;;7.60;4.47;;;;;;;;;;5034836;28;20045;-83
2023/06/04 00:40:26;;;;;;;7.88;4.97;;;;;;;;;;5020340;28;20038;-82
2023/06/04 00:43:13;;;;;;;10.60;5.18;;;;;;;;;;5040162;28;20046;-85
2023/06/04 00:46:02;;;;;;;7.68;5.18;;;;;;;;;;5026418;28;20037;-85
2023/06/04 00:48:48;;;;;;;8.77;4.90;;;;;;;;;;5054071;28;20053;-82
2023/06/04 00:51:34;;;;;;;5.72;4.95;;;;;;;;;;5034690;28;20046;-82
2023/06/04 00:54:21;;;;;;;7.53;4.88;;;;;;;;;;5034379;28;20045;-85
2023/06/04 00:57:08;;;;;;;12.77;6.40;;;;;;;;;;5026057;28;20041;-82
2023/06/04 00:59:53;;;;;;;10.38;5.55;;;;;;;;;;5032572;28;20049;-82
2023/06/04 01:02:43;;;;;;;8.27;6.18;;;;;;;;;;5033992;28;20038;-83
2023/06/04 01:06:02;;;;;;;13.88;6.00;;;;;;;;;;5047582;28;20049;-83
2023/06/04 01:08:54;;;;;;;8.23;6.30;;;;;;;;;;5034071;28;20037;-82
2023/06/04 01:11:40;;;;;;;13.07;6.85;;;;;;;;;;5039849;28;20049;-84
2023/06/04 01:14:25;;;;;;;11.07;6.53;;;;;;;;;;5053948;28;20049;-83
2023/06/04 01:17:17;;;;;;;7.97;6.55;;;;;;;;;;5053767;28;20071;-84
2023/06/04 01:20:12;;;;;;;10.35;6.85;;;;;;;;;;5033834;28;20041;-84
2023/06/04 01:23:28;;;;;;;10.35;6.78;;;;;;;;;;5033935;28;20407;-82
2023/06/04 01:26:14;;;;;;;7.68;6.22;;;;;;;;;;5039157;28;20430;-82
2023/06/04 01:29:01;;;;;;;15.10;6.68;;;;;;;;;;5052317;28;20057;-84
2023/06/04 01:31:48;;;;;;;8.50;6.82;;;;;;;;;;5052976;28;20033;-84
2023/06/04 01:34:44;;;;;;;18.80;7.40;;;;;;;;;;5039447;28;20399;-84
2023/06/04 01:37:28;;;;;;;10.90;6.95;;;;;;;;;;5033865;28;20037;-83
2023/06/04 01:40:14;;;;;;;9.45;7.25;;;;;;;;;;5039380;28;20037;-84
2023/06/04 01:42:59;;;;;;;9.00;7.60;;;;;;;;;;5038949;28;20057;-84
2023/06/04 01:45:45;;;;;;;9.90;7.53;;;;;;;;;;5053652;28;20399;-83
2023/06/04 01:48:31;;;;;;;12.43;7.65;;;;;;;;;;5039674;28;20037;-84
2023/06/04 01:51:16;;;;;;;9.95;7.75;;;;;;;;;;5039167;28;20042;-84
2023/06/04 01:54:03;;;;;;;13.52;8.15;;;;;;;;;;5019106;28;20399;-83
2023/06/04 01:56:48;;;;;;;14.38;9.07;;;;;;;;;;5038980;28;20054;-82
2023/06/04 01:59:36;;;;;;;20.10;9.05;;;;;;;;;;5038508;28;20399;-84
2023/06/04 02:02:22;;;;;;;14.85;8.43;;;;;;;;;;5033326;28;20387;-83
2023/06/04 02:05:10;;;;;;;10.65;8.25;;;;;;;;;;5033545;28;20395;-82
2023/06/04 02:07:57;;;;;;;9.35;6.90;;;;;;;;;;5053119;28;20045;-83
2023/06/04 02:10:42;;;;;;;12.82;7.97;;;;;;;;;;5033442;28;20041;-84
2023/06/04 02:13:27;;;;;;;13.10;7.65;;;;;;;;;;5024371;28;20049;-84
2023/06/04 02:16:14;;;;;;;10.52;6.63;;;;;;;;;;5033394;28;20049;-84
2023/06/04 02:19:00;;;;;;;9.90;5.97;;;;;;;;;;5033490;28;20049;-84
2023/06/04 02:21:46;;;;;;;12.30;6.68;;;;;;;;;;5018275;28;20041;-82
2023/06/04 02:24:31;;;;;;;11.95;7.20;;;;;;;;;;5038661;28;20045;-84
2023/06/04 02:27:17;;;;;;;12.60;7.40;;;;;;;;;;5039007;28;20045;-83
2023/06/04 02:30:05;;;;;;;14.30;7.03;;;;;;;;;;5033133;28;20045;-83
2023/06/04 02:32:50;;;;;;;44.90;27.05;;;;;;;;;;5025074;28;20033;-83
2023/06/04 02:35:37;;;;;;;22.08;14.77;;;;;;;;;;5038993;28;20045;-83
2023/06/04 02:38:22;;;;;;;11.02;7.70;;;;;;;;;;5055441;28;20049;-84
2023/06/04 02:41:08;;;;;;;12.02;7.40;;;;;;;;;;5042993;28;20053;-82
2023/06/04 02:43:55;;;;;;;14.45;6.82;;;;;;;;;;5022294;28;20045;-83
2023/06/04 02:46:40;;;;;;;18.52;7.03;;;;;;;;;;5022104;28;20045;-84
2023/06/04 02:49:26;;;;;;;9.45;7.07;;;;;;;;;;5021510;28;20041;-84
2023/06/04 02:52:12;;;;;;;10.25;6.45;;;;;;;;;;5035941;28;20067;-83
2023/06/04 02:54:57;;;;;;;9.52;6.10;;;;;;;;;;5043007;28;20041;-83
2023/06/04 02:57:43;;;;;;;9.85;6.85;;;;;;;;;;5042334;28;20045;-83
2023/06/04 03:00:28;;;;;;;12.52;6.97;;;;;;;;;;5042469;28;20053;-83
2023/06/04 03:03:14;;;;;;;10.15;6.75;;;;;;;;;;5042076;28;20049;-84
2023/06/04 03:06:02;;;;;;;9.93;7.03;;;;;;;;;;5042246;28;20049;-83
2023/06/04 03:08:51;;;;;;;12.43;8.32;;;;;;;;;;5028512;28;20045;-82
2023/06/04 03:11:37;;;;;;;11.85;7.80;;;;;;;;;;5055949;28;20041;-81
2023/06/04 03:14:23;;;;;;;9.80;7.07;;;;;;;;;;5056263;28;20474;-80
2023/06/04 03:17:10;;;;;;;12.70;6.93;;;;;;;;;;5036465;28;20050;-83
2023/06/04 03:19:56;;;;;;;12.43;6.72;;;;;;;;;;5036653;28;20486;-81
2023/06/04 03:22:41;;;;;;;10.25;5.57;;;;;;;;;;5041496;28;20037;-81
2023/06/04 03:25:26;;;;;;;8.55;5.70;;;;;;;;;;5035217;28;20391;-84
2023/06/04 03:28:12;;;;;;;9.02;6.00;;;;;;;;;;5027090;28;20041;-82
2023/06/04 03:30:58;;;;;;;12.57;6.20;;;;;;;;;;5034886;28;20046;-80
2023/06/04 03:33:45;;;;;;;9.98;6.07;;;;;;;;;;5055772;28;20033;-82
2023/06/04 03:36:37;;;;;;;9.98;6.15;;;;;;;;;;5041763;28;20049;-84
2023/06/04 03:39:24;;;;;;;14.05;6.30;;;;;;;;;;5041639;28;20419;-82
2023/06/04 03:42:10;;;;;;;8.60;6.07;;;;;;;;;;5055560;28;20053;-83
2023/06/04 03:44:58;;;;;;;9.40;6.47;;;;;;;;;;5041558;28;20487;-80
2023/06/04 03:47:43;;;;;;;12.82;6.18;;;;;;;;;;5041269;28;20487;-82
2023/06/04 03:50:29;;;;;;;11.02;6.88;;;;;;;;;;5039902;28;20037;-81
2023/06/04 03:53:15;;;;;;;11.07;6.88;;;;;;;;;;5055742;28;20045;-80
2023/06/04 03:56:00;;;;;;;8.82;7.18;;;;;;;;;;5041320;28;20049;-84
2023/06/04 03:58:46;;;;;;;12.90;8.82;;;;;;;;;;5040920;28;20483;-83
2023/06/04 04:01:33;;;;;;;15.20;9.60;;;;;;;;;;5041112;28;20049;-83
2023/06/04 04:04:19;;;;;;;11.18;8.88;;;;;;;;;;5040511;28;20041;-83
2023/06/04 04:07:04;;;;;;;14.55;9.00;;;;;;;;;;5041410;28;20048;-82
2023/06/04 04:09:51;;;;;;;13.27;9.77;;;;;;;;;;5055698;28;20045;-84
2023/06/04 04:12:36;;;;;;;14.48;9.57;;;;;;;;;;5035208;28;20041;-81
2023/06/04 04:15:22;;;;;;;15.48;9.80;;;;;;;;;;5041179;28;20053;-81
2023/06/04 04:18:10;;;;;;;15.45;9.38;;;;;;;;;;5027089;28;20053;-83
2023/06/04 04:20:56;;;;;;;15.18;9.80;;;;;;;;;;5040801;28;20048;-83
2023/06/04 04:23:42;;;;;;;17.45;10.27;;;;;;;;;;5034338;28;20088;-83
2023/06/04 04:26:28;;;;;;;18.83;10.55;;;;;;;;;;5035156;28;20049;-81
2023/06/04 04:29:16;;;;;;;18.80;11.77;;;;;;;;;;5038309;28;20410;-82
2023/06/04 04:32:11;;;;;;;19.00;11.70;;;;;;;;;;5040648;28;20037;-81
2023/06/04 04:34:59;;;;;;;27.90;12.70;;;;;;;;;;5040782;28;20045;-83
2023/06/04 04:37:54;;;;;;;21.80;13.25;;;;;;;;;;5040075;28;20038;-81
2023/06/04 04:40:39;;;;;;;30.98;14.35;;;;;;;;;;5054682;28;20049;-81
2023/06/04 04:43:35;;;;;;;33.88;15.65;;;;;;;;;;5054110;28;20041;-81
2023/06/04 04:46:28;;;;;;;24.60;15.20;;;;;;;;;;5039458;28;20045;-83
2023/06/04 04:49:14;;;;;;;28.98;15.65;;;;;;;;;;5033929;28;20045;-82
2023/06/04 04:51:59;;;;;;;30.70;15.75;;;;;;;;;;5040328;28;20049;-83
2023/06/04 04:54:45;;;;;;;27.20;14.90;;;;;;;;;;5054104;28;20041;-83
2023/06/04 04:57:30;;;;;;;29.20;15.05;;;;;;;;;;5054273;28;20053;-82
2023/06/04 05:00:17;;;;;;;24.80;15.77;;;;;;;;;;5053725;28;20041;-82
2023/06/04 05:03:05;;;;;;;31.25;16.10;;;;;;;;;;5039338;28;20053;-83
2023/06/04 05:05:50;;;;;;;26.75;14.65;;;;;;;;;;5040943;28;20049;-82
2023/06/04 05:08:37;;;;;;;25.30;15.63;;;;;;;;;;5039840;28;20045;-80
2023/06/04 05:11:23;;;;;;;30.60;14.80;;;;;;;;;;5053904;28;20037;-84
2023/06/04 05:14:08;;;;;;;26.33;15.38;;;;;;;;;;5039306;28;20037;-84
2023/06/04 05:16:57;;;;;;;29.10;15.05;;;;;;;;;;5053498;28;20041;-83
2023/06/04 05:19:44;;;;;;;28.92;15.32;;;;;;;;;;5039771;28;20049;-83
2023/06/04 05:22:32;;;;;;;30.15;15.10;;;;;;;;;;5025969;28;20491;-83
2023/06/04 05:25:18;;;;;;;27.85;15.40;;;;;;;;;;5039314;28;20041;-84
2023/06/04 05:28:05;;;;;;;25.48;15.18;;;;;;;;;;5025736;28;20136;-82
2023/06/04 05:30:51;;;;;;;25.30;14.60;;;;;;;;;;5046843;28;20073;-84
2023/06/04 05:33:37;;;;;;;25.98;13.50;;;;;;;;;;5025688;28;20037;-83
2023/06/04 05:36:29;;;;;;;22.70;13.48;;;;;;;;;;5039180;28;20041;-83
2023/06/04 05:39:18;;;;;;;21.23;12.57;;;;;;;;;;5038986;28;20495;-83
2023/06/04 05:42:15;;;;;;;18.33;10.65;;;;;;;;;;5037832;28;20046;-82
2023/06/04 05:45:01;;;;;;;17.35;9.27;;;;;;;;;;5053339;28;20045;-82
2023/06/04 05:47:46;;;;;;;17.92;9.13;;;;;;;;;;5052916;28;20041;-82
2023/06/04 05:50:32;;;;;;;16.45;8.52;;;;;;;;;;5038735;28;20487;-83
2023/06/04 05:53:17;;;;;;;12.32;7.43;;;;;;;;;;5025081;28;20037;-82
2023/06/04 05:56:05;;;;;;;9.55;5.70;;;;;;;;;;5052909;28;20041;-83
2023/06/04 05:58:53;;;;;;;7.45;4.63;;;;;;;;;;5053265;28;20049;-82
2023/06/04 06:01:41;;;;;;;9.68;4.22;;;;;;;;;;5039168;28;20045;-83
2023/06/04 06:04:27;;;;;;;4.50;2.58;;;;;;;;;;5038932;28;20483;-82
2023/06/04 06:07:13;;;;;;;7.60;3.20;;;;;;;;;;5038923;28;20049;-84
2023/06/04 06:09:59;;;;;;;4.88;2.22;;;;;;;;;;5033781;28;20042;-84
2023/06/04 06:12:45;;;;;;;3.38;2.13;;;;;;;;;;5020068;28;20045;-83
2023/06/04 06:15:31;;;;;;;7.78;2.60;;;;;;;;;;5042900;28;20041;-83
2023/06/04 06:18:18;;;;;;;6.82;3.20;;;;;;;;;;5042873;28;20483;-84
2023/06/04 06:21:03;;;;;;;3.95;2.45;;;;;;;;;;5036475;28;20132;-84
2023/06/04 06:23:49;;;;;;;4.05;2.58;;;;;;;;;;5042349;28;20041;-85
2023/06/04 06:26:34;;;;;;;3.72;1.80;;;;;;;;;;5041643;28;20050;-85
2023/06/04 06:29:21;;;;;;;3.28;2.45;;;;;;;;;;5040126;28;20054;-86
2023/06/04 06:32:10;;;;;;;5.13;2.45;;;;;;;;;;5042779;28;20037;-86
2023/06/04 06:34:55;;;;;;;5.25;2.15;;;;;;;;;;5037094;28;20483;-84
2023/06/04 06:37:43;;;;;;;4.05;2.08;;;;;;;;;;5037285;28;20046;-85
2023/06/04 06:40:30;;;;;;;5.22;2.25;;;;;;;;;;5022148;28;20057;-85
2023/06/04 06:43:15;;;;;;;6.55;2.35;;;;;;;;;;5042393;28;20042;-84
2023/06/04 06:46:03;;;;;;;5.45;2.60;;;;;;;;;;5021885;28;20049;-85
2023/06/04 06:48:48;;;;;;;6.70;2.40;;;;;;;;;;5037087;28;20041;-84
2023/06/04 06:51:33;;;;;;;3.33;2.17;;;;;;;;;;5056209;28;20041;-84
2023/06/04 06:54:21;;;;;;;5.05;2.30;;;;;;;;;;5021922;28;20037;-84
2023/06/04 06:57:08;;;;;;;5.18;2.30;;;;;;;;;;5042630;28;20050;-84
2023/06/04 06:59:54;;;;;;;4.95;2.60;;;;;;;;;;5036633;28;20034;-83
2023/06/04 07:02:39;;;;;;;4.43;2.65;;;;;;;;;;5036607;28;20050;-85
2023/06/04 07:05:24;;;;;;;3.95;2.63;;;;;;;;;;5036429;28;20037;-84
2023/06/04 07:08:10;;;;;;;8.18;2.50;;;;;;;;;;5036103;28;20041;-84
2023/06/04 07:10:56;;;;;;;3.45;2.30;;;;;;;;;;5036003;28;20045;-85
2023/06/04 07:13:42;;;;;;;7.45;2.88;;;;;;;;;;5036167;28;20037;-84
2023/06/04 07:16:27;;;;;;;3.60;2.65;;;;;;;;;;5036423;28;20038;-85
2023/06/04 07:19:12;;;;;;;6.47;2.60;;;;;;;;;;5036260;28;20033;-83
2023/06/04 07:21:57;;;;;;;6.05;2.45;;;;;;;;;;5021307;28;20042;-84
2023/06/04 07:24:43;;;;;;;5.15;2.17;;;;;;;;;;5040576;28;20050;-84
2023/06/04 07:27:28;;;;;;;4.57;2.40;;;;;;;;;;5036370;28;20033;-84
2023/06/04 07:30:14;;;;;;;3.72;2.78;;;;;;;;;;5035954;28;20050;-84
2023/06/04 07:33:00;;;;;;;4.72;2.53;;;;;;;;;;5036088;28;20041;-84
2023/06/04 07:35:45;;;;;;;3.22;2.40;;;;;;;;;;5035058;28;20041;-84
2023/06/04 07:38:31;;;;;;;4.55;2.17;;;;;;;;;;5036011;28;20053;-84
2023/06/04 07:41:16;;;;;;;4.80;2.13;;;;;;;;;;5041338;28;20045;-84
2023/06/04 07:44:02;;;;;;;6.38;2.33;;;;;;;;;;5041170;28;20403;-83
2023/06/04 07:46:48;;;;;;;7.30;2.65;;;;;;;;;;5035869;28;20053;-84
2023/06/04 07:49:33;;;;;;;5.30;2.40;;;;;;;;;;5035648;28;20041;-85
2023/06/04 07:52:18;;;;;;;3.13;2.63;;;;;;;;;;5035712;28;20050;-84
2023/06/04 07:55:04;;;;;;;9.35;2.65;;;;;;;;;;5041099;28;20475;-85
2023/06/04 07:57:50;;;;;;;5.25;2.47;;;;;;;;;;5048437;28;20045;-84
2023/06/04 08:00:35;;;;;;;4.32;2.40;;;;;;;;;;5035033;28;20045;-84
2023/06/04 08:03:22;;;;;;;6.70;2.45;;;;;;;;;;5034856;28;20049;-84
2023/06/04 08:06:07;;;;;;;5.15;2.53;;;;;;;;;;5033452;28;20038;-84
2023/06/04 08:08:53;;;;;;;5.32;2.35;;;;;;;;;;5034561;28;20049;-83
2023/06/04 08:11:41;;;;;;;5.30;2.38;;;;;;;;;;5035342;28;20048;-85
2023/06/04 08:14:27;;;;;;;6.35;2.50;;;;;;;;;;5035512;28;20041;-83
2023/06/04 08:17:13;;;;;;;5.32;2.80;;;;;;;;;;5035262;28;20487;-86
2023/06/04 08:19:58;;;;;;;3.63;2.67;;;;;;;;;;5035049;28;20503;-79
2023/06/04 08:22:44;;;;;;;15.50;7.50;;;;;;;;;;5035196;28;20042;-79
2023/06/04 08:25:30;;;;;;;3.63;1.90;;;;;;;;;;5035099;28;20046;-79
2023/06/04 08:28:16;;;;;;;11.82;6.07;;;;;;;;;;5035055;28;20042;-82
2023/06/04 08:31:02;;;;;;;7.20;2.70;;;;;;;;;;5034614;28;20403;-79
2023/06/04 08:33:47;;;;;;;7.72;2.40;;;;;;;;;;5034583;28;20045;-81
2023/06/04 08:36:33;;;;;;;3.15;2.00;;;;;;;;;;5034490;28;20395;-80
2023/06/04 08:39:18;;;;;;;4.68;2.30;;;;;;;;;;5034733;28;20045;-81
2023/06/04 08:42:09;;;;;;;2.83;2.22;;;;;;;;;;5034750;28;20049;-81
2023/06/04 08:44:57;;;;;;;5.57;2.63;;;;;;;;;;5034601;28;20049;-80
2023/06/04 08:47:50;;;;;;;4.55;2.25;;;;;;;;;;5054294;28;20495;-80
2023/06/04 08:50:35;;;;;;;3.78;2.38;;;;;;;;;;5034598;28;20037;-82
2023/06/04 08:53:22;;;;;;;3.78;2.88;;;;;;;;;;5034865;28;20403;-81
2023/06/04 08:56:20;;;;;;;6.03;3.33;;;;;;;;;;5033984;28;20053;-79
2023/06/04 08:59:16;;;;;;;4.93;2.42;;;;;;;;;;5039341;28;20049;-82
2023/06/04 09:02:04;;;;;;;4.15;2.28;;;;;;;;;;5047053;28;20490;-82
2023/06/04 09:04:49;;;;;;;5.00;3.00;;;;;;;;;;5034615;28;20045;-84
2023/06/04 09:07:36;;;;;;;5.20;2.47;;;;;;;;;;5053728;28;20042;-82
2023/06/04 09:10:25;;;;;;;7.05;1.88;;;;;;;;;;5034347;28;20044;-80
2023/06/04 09:13:11;;;;;;;6.13;2.92;;;;;;;;;;5034178;28;20407;-83
2023/06/04 09:16:03;;;;;;;6.07;2.38;;;;;;;;;;5034035;28;20046;-82
2023/06/04 09:18:50;;;;;;;5.47;1.98;;;;;;;;;;5034316;28;20046;-82
2023/06/04 09:21:51;;;;;;;4.25;2.00;;;;;;;;;;5033589;28;20049;-82
2023/06/04 09:24:47;;;;;;;2.88;2.13;;;;;;;;;;5034036;28;20038;-82
2023/06/04 09:27:39;;;;;;;2.28;1.77;;;;;;;;;;5034193;28;20041;-82
2023/06/04 09:30:25;;;;;;;2.60;1.83;;;;;;;;;;5033402;28;20041;-82
2023/06/04 09:33:12;;;;;;;5.47;1.90;;;;;;;;;;5033159;28;20049;-83
2023/06/04 09:35:58;;;;;;;3.85;2.25;;;;;;;;;;5033737;28;20495;-79
2023/06/04 09:38:44;;;;;;;5.50;2.17;;;;;;;;;;5033823;28;20399;-81
2023/06/04 09:41:33;;;;;;;4.25;2.05;;;;;;;;;;5039430;28;20486;-82
2023/06/04 09:44:19;;;;;;;2.50;1.60;;;;;;;;;;5025472;28;20037;-81
2023/06/04 09:47:04;;;;;;;4.95;2.30;;;;;;;;;;5033156;28;20046;-79
2023/06/04 09:49:52;;;;;;;6.97;2.30;;;;;;;;;;5033447;28;20049;-81
2023/06/04 09:52:39;;;;;;;6.07;2.45;;;;;;;;;;5033484;28;20418;-81
2023/06/04 09:55:26;;;;;;;5.25;2.28;;;;;;;;;;5033508;28;20045;-83
2023/06/04 09:58:15;;;;;;;7.10;2.15;;;;;;;;;;5038683;28;20045;-80
2023/06/04 10:01:03;;;;;;;3.00;1.92;;;;;;;;;;5033540;28;20049;-82
2023/06/04 10:03:50;;;;;;;8.23;2.10;;;;;;;;;;5032968;28;20045;-79
2023/06/04 10:06:38;;;;;;;4.25;2.05;;;;;;;;;;5033407;28;20041;-82
2023/06/04 10:09:25;;;;;;;22.55;2.33;;;;;;;;;;5038810;28;20398;-80
2023/06/04 10:12:14;;;;;;;4.28;1.80;;;;;;;;;;5033587;28;20053;-80
2023/06/04 10:15:03;;;;;;;2.38;1.83;;;;;;;;;;5033382;28;20037;-82
2023/06/04 10:17:50;;;;;;;2.22;1.73;;;;;;;;;;5033448;28;20053;-83
2023/06/04 10:20:35;;;;;;;4.60;1.92;;;;;;;;;;5033633;28;20045;-84
2023/06/04 10:23:22;;;;;;;5.47;1.90;;;;;;;;;;5033155;28;20045;-82
2023/06/04 10:26:08;;;;;;;5.07;2.20;;;;;;;;;;5033504;28;20491;-83
2023/06/04 10:28:57;;;;;;;6.10;3.00;;;;;;;;;;5035554;28;20050;-81
2023/06/04 10:31:46;;;;;;;7.03;2.78;;;;;;;;;;5038693;28;20045;-85
2023/06/04 10:34:32;;;;;;;4.05;2.30;;;;;;;;;;5041064;28;20045;-85
2023/06/04 10:37:22;;;;;;;2.88;2.05;;;;;;;;;;5039595;28;20046;-85
2023/06/04 10:40:08;;;;;;;5.97;2.35;;;;;;;;;;5039603;28;20502;-83
2023/06/04 10:42:54;;;;;;;6.90;3.65;;;;;;;;;;5039775;28;20053;-82
2023/06/04 10:45:40;;;;;;;9.77;5.63;;;;;;;;;;5039945;28;20049;-79
2023/06/04 10:48:26;;;;;;;5.25;2.10;;;;;;;;;;5039039;28;20034;-82
2023/06/04 10:51:12;;;;;;;2.88;1.90;;;;;;;;;;5033030;28;20387;-85
2023/06/04 10:54:05;;;;;;;5.18;2.80;;;;;;;;;;5033822;28;20041;-85
2023/06/04 10:56:53;;;;;;;4.45;1.75;;;;;;;;;;5033434;28;20049;-82
2023/06/04 10:59:39;;;;;;;4.80;2.58;;;;;;;;;;5040110;28;20487;-83
2023/06/04 11:02:25;;;;;;;3.55;2.10;;;;;;;;;;5035648;28;20037;-83
2023/06/04 11:05:11;;;;;;;3.85;1.60;;;;;;;;;;5041194;28;20061;-80
2023/06/04 11:07:56;;;;;;;3.30;2.13;;;;;;;;;;5036191;28;20046;-83
2023/06/04 11:10:44;;;;;;;2.42;2.15;;;;;;;;;;5036530;28;20045;-80
2023/06/04 11:13:29;;;;;;;5.97;2.20;;;;;;;;;;5049191;28;20045;-80
2023/06/04 11:16:19;;;;;;;3.25;1.88;;;;;;;;;;5035038;28;20479;-83
2023/06/04 11:19:05;;;;;;;2.55;1.92;;;;;;;;;;5036278;28;20395;-83
2023/06/04 11:21:50;;;;;;;2.67;2.08;;;;;;;;;;5036822;28;20049;-82
2023/06/04 11:24:36;;;;;;;5.63;2.08;;;;;;;;;;5028219;28;20053;-81
2023/06/04 11:27:22;;;;;;;4.95;2.33;;;;;;;;;;5036155;28;20037;-81
2023/06/04 11:30:08;;;;;;;2.25;1.88;;;;;;;;;;5036256;28;20046;-81
2023/06/04 11:33:04;;;;;;;2.55;1.58;;;;;;;;;;5036025;28;20046;-81
2023/06/04 11:35:49;;;;;;;3.58;1.90;;;;;;;;;;5035660;28;20046;-80
2023/06/04 11:38:35;;;;;;;2.30;1.52;;;;;;;;;;5036141;28;20037;-82
2023/06/04 11:41:20;;;;;;;4.07;2.00;;;;;;;;;;5035833;28;20049;-80
2023/06/04 11:44:06;;;;;;;2.60;2.10;;;;;;;;;;5036030;28;20045;-80
2023/06/04 11:46:53;;;;;;;2.80;1.77;;;;;;;;;;5035701;28;20057;-80
2023/06/04 11:49:39;;;;;;;4.38;1.85;;;;;;;;;;5034819;28;20045;-83
2023/06/04 11:52:25;;;;;;;2.60;1.70;;;;;;;;;;5035866;28;20037;-83
2023/06/04 11:55:13;;;;;;;5.03;1.85;;;;;;;;;;5036038;28;20049;-80
2023/06/04 11:57:59;;;;;;;3.03;1.95;;;;;;;;;;5035598;28;20045;-83
2023/06/04 12:00:44;;;;;;;4.43;1.67;;;;;;;;;;5035663;28;20057;-80
2023/06/04 12:03:41;;;;;;;3.28;1.70;;;;;;;;;;5035507;28;20045;-80
2023/06/04 12:06:26;;;;;;;5.65;1.80;;;;;;;;;;5035980;28;20033;-79
2023/06/04 12:09:20;;;;;;;3.35;2.00;;;;;;;;;;5035544;28;20037;-83
2023/06/04 12:12:07;;;;;;;2.13;1.80;;;;;;;;;;5035279;28;20046;-82
2023/06/04 12:14:58;;;;;;;1.88;1.65;;;;;;;;;;5035269;28;20042;-83
2023/06/04 12:17:54;;;;;;;2.08;1.73;;;;;;;;;;5035644;28;20053;-84
2023/06/04 12:20:41;;;;;;;3.45;2.38;;;;;;;;;;5054830;28;20045;-84
2023/06/04 12:23:27;;;;;;;4.43;2.00;;;;;;;;;;5035093;28;20479;-83
2023/06/04 12:26:28;;;;;;;2.92;1.90;;;;;;;;;;5034974;28;20426;-84
2023/06/04 12:29:20;;;;;;;3.95;2.22;;;;;;;;;;5034896;28;20046;-84
2023/06/04 12:32:07;;;;;;;6.32;2.22;;;;;;;;;;5035094;28;20041;-84
2023/06/04 12:34:53;;;;;;;3.03;1.80;;;;;;;;;;5034211;28;20495;-84
2023/06/04 12:37:39;;;;;;;2.35;1.67;;;;;;;;;;5034654;28;20041;-83
2023/06/04 12:40:24;;;;;;;2.08;1.88;;;;;;;;;;5034662;28;20519;-80
2023/06/04 12:43:10;;;;;;;3.28;2.22;;;;;;;;;;5034635;28;20054;-80
2023/06/04 12:45:55;;;;;;;2.17;1.65;;;;;;;;;;5034596;28;20049;-81
2023/06/04 12:48:41;;;;;;;2.85;2.05;;;;;;;;;;5034620;28;20496;-82
2023/06/04 12:51:26;;;;;;;3.60;2.05;;;;;;;;;;5033906;28;20049;-81
2023/06/04 12:54:12;;;;;;;3.25;1.88;;;;;;;;;;5034654;28;20041;-84
2023/06/04 12:56:59;;;;;;;6.18;2.50;;;;;;;;;;5033575;28;20045;-83
2023/06/04 12:59:44;;;;;;;3.63;2.13;;;;;;;;;;5034613;28;20045;-82
2023/06/04 13:02:29;;;;;;;7.28;2.50;;;;;;;;;;5053338;28;20399;-82
2023/06/04 13:05:15;;;;;;;5.07;2.33;;;;;;;;;;5031463;28;20049;-83
2023/06/04 13:08:01;;;;;;;3.00;2.17;;;;;;;;;;5032400;28;20057;-82
2023/06/04 13:10:47;;;;;;;3.85;2.28;;;;;;;;;;5032159;28;20400;-82
2023/06/04 13:13:33;;;;;;;2.22;1.92;;;;;;;;;;5040321;28;20033;-83
2023/06/04 13:16:19;;;;;;;2.08;1.70;;;;;;;;;;5033653;28;20045;-83
2023/06/04 13:19:06;;;;;;;4.10;2.10;;;;;;;;;;5034152;28;20045;-83
2023/06/04 13:21:52;;;;;;;6.93;2.05;;;;;;;;;;5034209;28;20387;-84
2023/06/04 13:24:38;;;;;;;3.03;2.00;;;;;;;;;;5033041;28;20038;-82
2023/06/04 13:27:24;;;;;;;7.65;2.40;;;;;;;;;;5019246;28;20048;-83
2023/06/04 13:30:10;;;;;;;5.93;2.20;;;;;;;;;;5033429;28;20037;-83
2023/06/04 13:33:00;;;;;;;5.35;1.73;;;;;;;;;;5033793;28;20037;-84
2023/06/04 13:35:45;;;;;;;2.50;1.80;;;;;;;;;;5033645;28;20041;-83
2023/06/04 13:38:34;;;;;;;3.28;1.80;;;;;;;;;;5033998;28;20037;-85
2023/06/04 13:41:21;;;;;;;3.28;1.70;;;;;;;;;;5033925;28;20046;-81
2023/06/04 13:44:06;;;;;;;2.00;1.80;;;;;;;;;;5033706;28;20049;-80
2023/06/04 13:46:51;;;;;;;2.25;1.85;;;;;;;;;;5032954;28;20049;-82
2023/06/04 13:49:38;;;;;;;1.60;1.50;;;;;;;;;;5033735;28;20045;-80
2023/06/04 13:52:23;;;;;;;2.35;1.60;;;;;;;;;;5033496;28;20037;-80
2023/06/04 13:55:09;;;;;;;3.08;1.80;;;;;;;;;;5033744;28;20041;-83
2023/06/04 13:57:55;;;;;;;1.77;1.52;;;;;;;;;;5033668;28;20041;-83
2023/06/04 14:00:40;;;;;;;3.50;2.00;;;;;;;;;;5033420;28;20049;-83
2023/06/04 14:03:26;;;;;;;4.32;2.03;;;;;;;;;;5031982;28;20041;-82
2023/06/04 14:06:11;;;;;;;2.08;1.75;;;;;;;;;;5031872;28;20626;-82
2023/06/04 14:08:57;;;;;;;3.63;1.85;;;;;;;;;;5033219;28;20042;-82
2023/06/04 14:11:42;;;;;;;1.50;1.30;;;;;;;;;;5033207;28;20045;-82
2023/06/04 14:14:35;;;;;;;1.40;1.20;;;;;;;;;;5033058;28;20033;-82
2023/06/04 14:17:22;;;;;;;5.05;1.70;;;;;;;;;;5033345;28;20483;-83
2023/06/04 14:20:08;;;;;;;4.72;1.80;;;;;;;;;;5033529;28;20045;-82
2023/06/04 14:22:54;;;;;;;4.38;1.60;;;;;;;;;;5032842;28;20041;-82
2023/06/04 14:25:39;;;;;;;2.47;1.80;;;;;;;;;;5033109;28;20045;-83
2023/06/04 14:28:25;;;;;;;2.20;1.60;;;;;;;;;;5033096;28;20045;-81
2023/06/04 14:31:11;;;;;;;2.05;1.50;;;;;;;;;;5033312;28;20046;-82
2023/06/04 14:33:56;;;;;;;1.73;1.45;;;;;;;;;;5034128;28;20037;-81
2023/06/04 14:36:41;;;;;;;2.50;1.50;;;;;;;;;;5037220;28;20049;-81
2023/06/04 14:39:27;;;;;;;1.63;1.23;;;;;;;;;;5037061;28;20045;-83
2023/06/04 14:42:13;;;;;;;1.90;1.58;;;;;;;;;;5036771;28;20045;-84
2023/06/04 14:44:58;;;;;;;1.88;1.40;;;;;;;;;;5037142;28;20041;-84
2023/06/04 14:47:44;;;;;;;3.92;1.60;;;;;;;;;;5021961;28;20033;-85
2023/06/04 14:50:30;;;;;;;2.50;1.70;;;;;;;;;;5036976;28;20045;-84
2023/06/04 14:53:15;;;;;;;1.65;1.38;;;;;;;;;;5042360;28;20042;-82
2023/06/04 14:56:00;;;;;;;2.60;1.40;;;;;;;;;;5042742;28;20045;-84
2023/06/04 14:58:45;;;;;;;1.50;1.10;;;;;;;;;;5042619;28;20041;-82
2023/06/04 15:01:31;;;;;;;1.98;1.63;;;;;;;;;;5036993;28;20049;-83
2023/06/04 15:04:16;;;;;;;3.25;1.80;;;;;;;;;;5036619;28;20049;-82
2023/06/04 15:07:02;;;;;;;3.15;1.60;;;;;;;;;;5036191;28;20407;-80
2023/06/04 15:09:47;;;;;;;2.03;1.55;;;;;;;;;;5036596;28;20487;-81
2023/06/04 15:12:35;;;;;;;2.38;1.20;;;;;;;;;;5036672;28;20041;-80
2023/06/04 15:15:23;;;;;;;2.60;1.30;;;;;;;;;;5036806;28;20487;-80
2023/06/04 15:18:08;;;;;;;3.40;1.02;;;;;;;;;;5049442;28;20045;-82
2023/06/04 15:20:54;;;;;;;6.10;1.48;;;;;;;;;;5036521;28;20038;-83
2023/06/04 15:23:40;;;;;;;1.70;1.33;;;;;;;;;;5037406;28;20049;-82
2023/06/04 15:26:26;;;;;;;1.30;1.20;;;;;;;;;;5035823;28;20045;-83
2023/06/04 15:29:12;;;;;;;3.33;1.20;;;;;;;;;;5036188;28;20053;-83
2023/06/04 15:31:57;;;;;;;1.67;1.00;;;;;;;;;;5035099;28;20045;-81
2023/06/04 15:34:43;;;;;;;4.15;1.20;;;;;;;;;;5036494;28;20037;-83
2023/06/04 15:37:28;;;;;;;1.15;0.90;;;;;;;;;;5036347;28;20399;-83
2023/06/04 15:40:14;;;;;;;2.65;1.20;;;;;;;;;;5036255;28;20053;-83
2023/06/04 15:43:00;;;;;;;1.65;1.27;;;;;;;;;;5041417;28;20063;-81
2023/06/04 15:45:45;;;;;;;4.25;2.08;;;;;;;;;;5019589;28;20041;-82
2023/06/04 15:48:31;;;;;;;1.63;1.10;;;;;;;;;;5036181;28;20046;-83
2023/06/04 15:51:17;;;;;;;1.83;1.10;;;;;;;;;;5035889;28;20053;-82
2023/06/04 15:54:03;;;;;;;1.45;1.20;;;;;;;;;;5035021;28;20041;-82
2023/06/04 15:56:48;;;;;;;1.20;1.00;;;;;;;;;;5020533;28;20479;-84
2023/06/04 15:59:33;;;;;;;1.35;1.02;;;;;;;;;;5034989;28;20037;-83
2023/06/04 16:02:19;;;;;;;1.02;0.93;;;;;;;;;;5035515;28;20045;-83
2023/06/04 16:05:04;;;;;;;1.10;0.98;;;;;;;;;;5035553;28;20049;-82
2023/06/04 16:07:50;;;;;;;1.42;1.05;;;;;;;;;;5035701;28;20049;-82
2023/06/04 16:10:35;;;;;;;1.10;1.00;;;;;;;;;;5035459;28;20037;-83
2023/06/04 16:13:21;;;;;;;1.00;0.90;;;;;;;;;;5034912;28;20049;-81
2023/06/04 16:16:08;;;;;;;0.98;0.80;;;;;;;;;;5035697;28;20391;-81
2023/06/04 16:18:53;;;;;;;1.40;1.05;;;;;;;;;;5035477;28;20063;-81
2023/06/04 16:21:39;;;;;;;3.38;1.33;;;;;;;;;;5035281;28;20041;-83
2023/06/04 16:24:25;;;;;;;1.05;1.00;;;;;;;;;;5035123;28;20049;-84
2023/06/04 16:27:10;;;;;;;1.88;1.20;;;;;;;;;;5040641;28;20041;-84
2023/06/04 16:29:56;;;;;;;1.13;1.02;;;;;;;;;;5034990;28;20053;-82
2023/06/04 16:32:41;;;;;;;1.33;1.20;;;;;;;;;;5035031;28;20041;-80
2023/06/04 16:35:27;;;;;;;1.20;1.10;;;;;;;;;;5034051;28;20475;-80